sensor_id;sensor_type;location;lat;lon;timestamp;pressure;altitude;pressure_sealevel;temperature;humidity
25560;BME280;13450;49.374;8.584;2023-06-05T00:01:18;100562.97;;;19.03;35.44
25560;BME280;13450;49.374;8.584;2023-06-05T00:03:43;100562.41;;;19.01;36.48
25560;BME280;13450;49.374;8.584;2023-06-05T00:06:09;100574.56;;;18.98;36.48
25560;BME280;13450;49.374;8.584;2023-06-05T00:08:35;100579.38;;;18.96;36.32
25560;BME280;13450;49.374;8.584;2023-06-05T00:11:00;100578.56;;;18.95;36.40
25560;BME280;13450;49.374;8.584;2023-06-05T00:13:25;100578.69;;;18.89;36.41
25560;BME280;13450;49.374;8.584;2023-06-05T00:15:51;100584.25;;;18.82;36.81
25560;BME280;13450;49.374;8.584;2023-06-05T00:18:17;100585.41;;;18.74;36.83
25560;BME280;13450;49.374;8.584;2023-06-05T00:20:42;100582.47;;;18.76;37.46
25560;BME280;13450;49.374;8.584;2023-06-05T00:23:08;100588.84;;;18.69;37.79
25560;BME280;13450;49.374;8.584;2023-06-05T00:25:33;100588.84;;;18.58;37.66
25560;BME280;13450;49.374;8.584;2023-06-05T00:29:43;100587.75;;;18.35;37.55
25560;BME280;13450;49.374;8.584;2023-06-05T00:32:08;100585.84;;;18.23;38.34
25560;BME280;13450;49.374;8.584;2023-06-05T00:34:33;100576.88;;;18.11;38.54
25560;BME280;13450;49.374;8.584;2023-06-05T00:36:59;100585.81;;;18.11;39.14
25560;BME280;13450;49.374;8.584;2023-06-05T00:39:24;100589.00;;;18.08;38.56
25560;BME280;13450;49.374;8.584;2023-06-05T00:41:52;100586.06;;;18.10;37.71
25560;BME280;13450;49.374;8.584;2023-06-05T00:44:18;100581.91;;;18.07;37.41
25560;BME280;13450;49.374;8.584;2023-06-05T00:46:43;100578.16;;;18.08;37.73
25560;BME280;13450;49.374;8.584;2023-06-05T00:49:09;100578.88;;;18.15;38.45
25560;BME280;13450;49.374;8.584;2023-06-05T00:51:35;100581.38;;;18.17;37.93
25560;BME280;13450;49.374;8.584;2023-06-05T00:54:01;100571.84;;;18.14;37.84
25560;BME280;13450;49.374;8.584;2023-06-05T00:56:27;100578.88;;;18.15;37.40
25560;BME280;13450;49.374;8.584;2023-06-05T00:58:53;100577.69;;;18.11;37.71
25560;BME280;13450;49.374;8.584;2023-06-05T01:01:20;100580.19;;;18.13;37.99
25560;BME280;13450;49.374;8.584;2023-06-05T01:03:49;100580.53;;;18.16;37.56
25560;BME280;13450;49.374;8.584;2023-06-05T01:06:15;100569.47;;;18.18;38.23
25560;BME280;13450;49.374;8.584;2023-06-05T01:08:41;100577.59;;;18.18;37.96
25560;BME280;13450;49.374;8.584;2023-06-05T01:11:18;100574.31;;;18.16;37.08
25560;BME280;13450;49.374;8.584;2023-06-05T01:13:50;100584.31;;;18.15;38.08
25560;BME280;13450;49.374;8.584;2023-06-05T01:16:22;100587.13;;;18.09;38.21
25560;BME280;13450;49.374;8.584;2023-06-05T01:18:55;100587.88;;;17.97;40.79
25560;BME280;13450;49.374;8.584;2023-06-05T01:21:27;100580.66;;;17.79;41.12
25560;BME280;13450;49.374;8.584;2023-06-05T01:23:52;100590.47;;;17.61;42.32
25560;BME280;13450;49.374;8.584;2023-06-05T01:26:18;100577.25;;;17.53;41.35
25560;BME280;13450;49.374;8.584;2023-06-05T01:28:47;100591.16;;;17.38;42.91
25560;BME280;13450;49.374;8.584;2023-06-05T01:31:17;100587.47;;;17.32;41.49
25560;BME280;13450;49.374;8.584;2023-06-05T01:33:50;100584.03;;;17.25;43.03
25560;BME280;13450;49.374;8.584;2023-06-05T01:36:17;100579.53;;;17.19;43.66
25560;BME280;13450;49.374;8.584;2023-06-05T01:38:44;100578.78;;;17.11;42.98
25560;BME280;13450;49.374;8.584;2023-06-05T01:41:11;100579.50;;;17.00;44.11
25560;BME280;13450;49.374;8.584;2023-06-05T01:43:38;100582.97;;;16.89;44.36
25560;BME280;13450;49.374;8.584;2023-06-05T01:46:04;100590.56;;;16.73;46.33
25560;BME280;13450;49.374;8.584;2023-06-05T01:48:33;100582.75;;;16.65;46.88
25560;BME280;13450;49.374;8.584;2023-06-05T01:50:59;100584.94;;;16.56;46.12
25560;BME280;13450;49.374;8.584;2023-06-05T01:53:28;100582.56;;;16.41;48.83
25560;BME280;13450;49.374;8.584;2023-06-05T01:55:54;100577.09;;;16.22;51.03
25560;BME280;13450;49.374;8.584;2023-06-05T01:58:23;100582.44;;;16.03;50.50
25560;BME280;13450;49.374;8.584;2023-06-05T02:00:48;100580.84;;;15.89;52.65
25560;BME280;13450;49.374;8.584;2023-06-05T02:03:14;100576.72;;;15.86;52.03
25560;BME280;13450;49.374;8.584;2023-06-05T02:05:41;100575.06;;;15.78;53.74
25560;BME280;13450;49.374;8.584;2023-06-05T02:08:08;100585.13;;;15.64;55.71
25560;BME280;13450;49.374;8.584;2023-06-05T02:10:35;100581.84;;;15.55;54.10
25560;BME280;13450;49.374;8.584;2023-06-05T02:13:03;100575.88;;;15.47;53.03
25560;BME280;13450;49.374;8.584;2023-06-05T02:15:29;100581.88;;;15.42;54.45
25560;BME280;13450;49.374;8.584;2023-06-05T02:17:57;100572.56;;;15.38;55.59
25560;BME280;13450;49.374;8.584;2023-06-05T02:20:26;100580.47;;;15.33;55.76
25560;BME280;13450;49.374;8.584;2023-06-05T02:22:52;100574.50;;;15.30;57.08
25560;BME280;13450;49.374;8.584;2023-06-05T02:25:18;100579.69;;;15.25;54.51
25560;BME280;13450;49.374;8.584;2023-06-05T02:27:44;100581.34;;;15.26;55.35
25560;BME280;13450;49.374;8.584;2023-06-05T02:30:10;100580.72;;;15.24;56.40
25560;BME280;13450;49.374;8.584;2023-06-05T02:32:36;100579.06;;;15.23;54.33
25560;BME280;13450;49.374;8.584;2023-06-05T02:35:06;100583.84;;;15.21;54.16
25560;BME280;13450;49.374;8.584;2023-06-05T02:37:31;100582.00;;;15.15;52.01
25560;BME280;13450;49.374;8.584;2023-06-05T02:40:06;100582.22;;;15.07;55.80
25560;BME280;13450;49.374;8.584;2023-06-05T02:42:33;100586.19;;;14.97;52.43
25560;BME280;13450;49.374;8.584;2023-06-05T02:44:58;100590.78;;;14.90;60.11
25560;BME280;13450;49.374;8.584;2023-06-05T02:47:24;100589.13;;;14.89;53.78
25560;BME280;13450;49.374;8.584;2023-06-05T02:49:50;100584.75;;;14.88;52.16
25560;BME280;13450;49.374;8.584;2023-06-05T02:52:15;100589.53;;;14.86;55.32
25560;BME280;13450;49.374;8.584;2023-06-05T02:54:40;100585.78;;;14.87;56.82
25560;BME280;13450;49.374;8.584;2023-06-05T02:57:06;100580.00;;;14.83;53.48
25560;BME280;13450;49.374;8.584;2023-06-05T02:59:36;100583.75;;;14.82;58.91
25560;BME280;13450;49.374;8.584;2023-06-05T03:02:05;100576.28;;;14.77;55.89
25560;BME280;13450;49.374;8.584;2023-06-05T03:04:30;100594.91;;;14.72;52.50
25560;BME280;13450;49.374;8.584;2023-06-05T03:06:57;100588.28;;;14.68;56.85
25560;BME280;13450;49.374;8.584;2023-06-05T03:09:28;100588.69;;;14.65;52.47
25560;BME280;13450;49.374;8.584;2023-06-05T03:11:53;100588.09;;;14.63;60.86
25560;BME280;13450;49.374;8.584;2023-06-05T03:14:21;100586.63;;;14.60;55.34
25560;BME280;13450;49.374;8.584;2023-06-05T03:16:46;100584.97;;;14.52;54.45
25560;BME280;13450;49.374;8.584;2023-06-05T03:19:12;100584.16;;;14.45;59.06
25560;BME280;13450;49.374;8.584;2023-06-05T03:21:38;100586.22;;;14.43;63.84
25560;BME280;13450;49.374;8.584;2023-06-05T03:24:06;100575.03;;;14.39;63.43
25560;BME280;13450;49.374;8.584;2023-06-05T03:26:32;100580.81;;;14.30;64.45
25560;BME280;13450;49.374;8.584;2023-06-05T03:28:58;100582.91;;;14.21;59.96
25560;BME280;13450;49.374;8.584;2023-06-05T03:31:24;100586.00;;;14.11;61.55
25560;BME280;13450;49.374;8.584;2023-06-05T03:33:49;100587.44;;;14.07;62.58
25560;BME280;13450;49.374;8.584;2023-06-05T03:36:16;100595.31;;;14.08;63.14
25560;BME280;13450;49.374;8.584;2023-06-05T03:38:45;100591.56;;;14.03;62.94
25560;BME280;13450;49.374;8.584;2023-06-05T03:41:11;100594.50;;;14.08;66.94
25560;BME280;13450;49.374;8.584;2023-06-05T03:43:36;100591.56;;;14.16;63.86
25560;BME280;13450;49.374;8.584;2023-06-05T03:46:03;100599.06;;;14.21;63.35
25560;BME280;13450;49.374;8.584;2023-06-05T03:48:28;100596.78;;;14.24;60.91
25560;BME280;13450;49.374;8.584;2023-06-05T03:50:56;100598.22;;;14.20;60.62
25560;BME280;13450;49.374;8.584;2023-06-05T03:53:22;100597.41;;;14.27;59.18
25560;BME280;13450;49.374;8.584;2023-06-05T03:55:48;100614.81;;;14.24;61.63
25560;BME280;13450;49.374;8.584;2023-06-05T03:58:18;100597.41;;;14.27;67.00
25560;BME280;13450;49.374;8.584;2023-06-05T04:00:46;100600.31;;;14.25;62.87
25560;BME280;13450;49.374;8.584;2023-06-05T04:03:14;100607.72;;;14.23;61.46
25560;BME280;13450;49.374;8.584;2023-06-05T04:05:40;100605.28;;;14.21;62.75
25560;BME280;13450;49.374;8.584;2023-06-05T04:08:07;100604.84;;;14.24;67.91
25560;BME280;13450;49.374;8.584;2023-06-05T04:10:32;100608.16;;;14.27;67.62
25560;BME280;13450;49.374;8.584;2023-06-05T04:13:01;100600.69;;;14.22;65.50
25560;BME280;13450;49.374;8.584;2023-06-05T04:15:28;100602.78;;;14.33;66.18
25560;BME280;13450;49.374;8.584;2023-06-05T04:17:53;100607.97;;;14.42;65.38
25560;BME280;13450;49.374;8.584;2023-06-05T04:20:19;100599.91;;;14.48;63.64
25560;BME280;13450;49.374;8.584;2023-06-05T04:22:45;100604.44;;;14.48;59.68
25560;BME280;13450;49.374;8.584;2023-06-05T04:25:11;100610.69;;;14.48;60.62
25560;BME280;13450;49.374;8.584;2023-06-05T04:27:43;100606.31;;;14.54;64.98
25560;BME280;13450;49.374;8.584;2023-06-05T04:30:12;100618.97;;;14.60;57.88
25560;BME280;13450;49.374;8.584;2023-06-05T04:32:39;100613.13;;;14.70;61.48
25560;BME280;13450;49.374;8.584;2023-06-05T04:35:09;100614.84;;;14.78;58.79
25560;BME280;13450;49.374;8.584;2023-06-05T04:37:35;100624.75;;;14.84;56.19
25560;BME280;13450;49.374;8.584;2023-06-05T04:40:02;100615.63;;;14.85;62.46
25560;BME280;13450;49.374;8.584;2023-06-05T04:42:31;100613.97;;;14.91;59.21
25560;BME280;13450;49.374;8.584;2023-06-05T04:45:02;100619.56;;;14.89;60.64
25560;BME280;13450;49.374;8.584;2023-06-05T04:47:28;100613.13;;;14.97;61.79
25560;BME280;13450;49.374;8.584;2023-06-05T04:49:54;100612.72;;;15.00;57.14
25560;BME280;13450;49.374;8.584;2023-06-05T04:52:20;100610.41;;;15.11;59.29
25560;BME280;13450;49.374;8.584;2023-06-05T04:54:46;100614.75;;;15.19;58.85
25560;BME280;13450;49.374;8.584;2023-06-05T04:57:11;100612.66;;;15.27;58.74
25560;BME280;13450;49.374;8.584;2023-06-05T04:59:37;100613.47;;;15.28;54.71
25560;BME280;13450;49.374;8.584;2023-06-05T05:02:02;100613.00;;;15.38;59.40
25560;BME280;13450;49.374;8.584;2023-06-05T05:04:28;100620.06;;;15.46;57.90
25560;BME280;13450;49.374;8.584;2023-06-05T05:06:53;100616.28;;;15.53;55.98
25560;BME280;13450;49.374;8.584;2023-06-05T05:09:18;100617.91;;;15.61;57.48
25560;BME280;13450;49.374;8.584;2023-06-05T05:11:44;100615.00;;;15.63;57.08
25560;BME280;13450;49.374;8.584;2023-06-05T05:14:09;100612.88;;;15.72;55.54
25560;BME280;13450;49.374;8.584;2023-06-05T05:16:34;100619.47;;;15.82;57.02
25560;BME280;13450;49.374;8.584;2023-06-05T05:19:00;100613.22;;;15.89;57.30
25560;BME280;13450;49.374;8.584;2023-06-05T05:21:25;100615.06;;;15.95;56.77
25560;BME280;13450;49.374;8.584;2023-06-05T05:23:51;100622.06;;;16.03;55.35
25560;BME280;13450;49.374;8.584;2023-06-05T05:26:16;100612.66;;;16.12;54.59
25560;BME280;13450;49.374;8.584;2023-06-05T05:28:42;100610.97;;;16.18;55.28
25560;BME280;13450;49.374;8.584;2023-06-05T05:31:07;100625.47;;;16.24;54.21
25560;BME280;13450;49.374;8.584;2023-06-05T05:33:32;100619.66;;;16.27;53.18
25560;BME280;13450;49.374;8.584;2023-06-05T05:35:57;100625.00;;;16.33;54.47
25560;BME280;13450;49.374;8.584;2023-06-05T05:38:23;100622.00;;;16.42;53.79
25560;BME280;13450;49.374;8.584;2023-06-05T05:40:48;100624.66;;;16.48;52.98
25560;BME280;13450;49.374;8.584;2023-06-05T05:43:13;100622.53;;;16.57;55.15
25560;BME280;13450;49.374;8.584;2023-06-05T05:45:41;100622.25;;;16.66;54.40
25560;BME280;13450;49.374;8.584;2023-06-05T05:48:08;100625.50;;;16.74;55.05
25560;BME280;13450;49.374;8.584;2023-06-05T05:50:34;100623.34;;;16.83;53.81
25560;BME280;13450;49.374;8.584;2023-06-05T05:52:59;100624.72;;;16.93;53.14
25560;BME280;13450;49.374;8.584;2023-06-05T05:55:24;100630.25;;;16.98;50.03
25560;BME280;13450;49.374;8.584;2023-06-05T05:57:50;100626.25;;;17.07;53.74
25560;BME280;13450;49.374;8.584;2023-06-05T06:00:16;100616.19;;;17.15;52.80
25560;BME280;13450;49.374;8.584;2023-06-05T06:02:41;100625.03;;;17.22;52.02
25560;BME280;13450;49.374;8.584;2023-06-05T06:05:07;100625.19;;;17.27;52.70
25560;BME280;13450;49.374;8.584;2023-06-05T06:07:33;100626.53;;;17.36;52.61
25560;BME280;13450;49.374;8.584;2023-06-05T06:09:58;100620.25;;;17.43;51.93
25560;BME280;13450;49.374;8.584;2023-06-05T06:12:24;100628.06;;;17.51;52.48
25560;BME280;13450;49.374;8.584;2023-06-05T06:14:50;100628.34;;;17.61;52.69
25560;BME280;13450;49.374;8.584;2023-06-05T06:17:15;100632.75;;;17.74;50.47
25560;BME280;13450;49.374;8.584;2023-06-05T06:19:40;100624.09;;;17.84;49.90
25560;BME280;13450;49.374;8.584;2023-06-05T06:22:07;100626.59;;;17.98;50.11
25560;BME280;13450;49.374;8.584;2023-06-05T06:24:42;100629.78;;;18.07;49.12
25560;BME280;13450;49.374;8.584;2023-06-05T06:27:08;100620.56;;;18.14;50.46
25560;BME280;13450;49.374;8.584;2023-06-05T06:29:34;100629.63;;;18.20;48.28
25560;BME280;13450;49.374;8.584;2023-06-05T06:31:59;100632.84;;;18.29;48.29
25560;BME280;13450;49.374;8.584;2023-06-05T06:34:25;100635.22;;;18.37;47.21
25560;BME280;13450;49.374;8.584;2023-06-05T06:36:50;100640.03;;;18.47;47.61
25560;BME280;13450;49.374;8.584;2023-06-05T06:39:16;100639.94;;;18.54;46.69
25560;BME280;13450;49.374;8.584;2023-06-05T06:41:41;100638.06;;;18.66;47.10
25560;BME280;13450;49.374;8.584;2023-06-05T06:44:09;100637.72;;;18.75;44.64
25560;BME280;13450;49.374;8.584;2023-06-05T06:46:34;100633.13;;;18.87;46.59
25560;BME280;13450;49.374;8.584;2023-06-05T06:49:00;100648.44;;;18.93;44.59
25560;BME280;13450;49.374;8.584;2023-06-05T06:51:25;100642.69;;;19.02;44.41
25560;BME280;13450;49.374;8.584;2023-06-05T06:53:50;100639.41;;;19.12;44.31
25560;BME280;13450;49.374;8.584;2023-06-05T06:56:16;100639.97;;;19.26;43.19
25560;BME280;13450;49.374;8.584;2023-06-05T06:58:45;100638.53;;;19.35;43.08
25560;BME280;13450;49.374;8.584;2023-06-05T07:01:11;100639.22;;;19.42;43.91
25560;BME280;13450;49.374;8.584;2023-06-05T07:03:37;100639.94;;;19.50;43.73
25560;BME280;13450;49.374;8.584;2023-06-05T07:06:03;100632.22;;;19.58;43.34
25560;BME280;13450;49.374;8.584;2023-06-05T07:08:28;100640.31;;;19.70;42.49
25560;BME280;13450;49.374;8.584;2023-06-05T07:10:54;100644.78;;;19.77;41.55
25560;BME280;13450;49.374;8.584;2023-06-05T07:13:23;100641.81;;;19.78;41.82
25560;BME280;13450;49.374;8.584;2023-06-05T07:15:48;100644.38;;;19.85;41.79
25560;BME280;13450;49.374;8.584;2023-06-05T07:18:16;100642.97;;;19.94;41.44
25560;BME280;13450;49.374;8.584;2023-06-05T07:20:42;100642.25;;;19.99;41.33
25560;BME280;13450;49.374;8.584;2023-06-05T07:23:07;100639.97;;;20.08;41.95
25560;BME280;13450;49.374;8.584;2023-06-05T07:25:32;100633.53;;;20.14;41.37
25560;BME280;13450;49.374;8.584;2023-06-05T07:27:58;100633.16;;;20.22;41.56
25560;BME280;13450;49.374;8.584;2023-06-05T07:30:25;100636.19;;;20.26;41.93
25560;BME280;13450;49.374;8.584;2023-06-05T07:32:51;100630.59;;;20.33;41.12
25560;BME280;13450;49.374;8.584;2023-06-05T07:35:17;100631.84;;;20.42;41.16
25560;BME280;13450;49.374;8.584;2023-06-05T07:37:42;100639.34;;;20.52;40.81
25560;BME280;13450;49.374;8.584;2023-06-05T07:40:11;100630.44;;;20.57;40.46
25560;BME280;13450;49.374;8.584;2023-06-05T07:42:36;100630.59;;;20.67;40.01
25560;BME280;13450;49.374;8.584;2023-06-05T07:45:02;100634.56;;;20.76;40.05
25560;BME280;13450;49.374;8.584;2023-06-05T07:47:29;100631.41;;;20.85;40.16
25560;BME280;13450;49.374;8.584;2023-06-05T07:50:02;100631.09;;;20.98;39.94
25560;BME280;13450;49.374;8.584;2023-06-05T07:52:32;100631.16;;;21.03;39.39
25560;BME280;13450;49.374;8.584;2023-06-05T07:54:58;100634.50;;;21.11;40.07
25560;BME280;13450;49.374;8.584;2023-06-05T07:57:23;100633.50;;;21.17;39.29
25560;BME280;13450;49.374;8.584;2023-06-05T07:59:55;100625.97;;;21.24;38.93
25560;BME280;13450;49.374;8.584;2023-06-05T08:02:20;100628.19;;;21.27;38.74
25560;BME280;13450;49.374;8.584;2023-06-05T08:04:46;100633.13;;;21.30;39.22
25560;BME280;13450;49.374;8.584;2023-06-05T08:07:14;100626.38;;;21.33;38.87
25560;BME280;13450;49.374;8.584;2023-06-05T08:09:40;100630.47;;;21.36;39.52
25560;BME280;13450;49.374;8.584;2023-06-05T08:12:06;100617.75;;;21.41;39.62
25560;BME280;13450;49.374;8.584;2023-06-05T08:14:33;100623.31;;;21.52;40.59
25560;BME280;13450;49.374;8.584;2023-06-05T08:16:58;100615.50;;;21.61;39.63
25560;BME280;13450;49.374;8.584;2023-06-05T08:19:24;100616.09;;;21.63;40.35
25560;BME280;13450;49.374;8.584;2023-06-05T08:21:53;100611.88;;;21.72;40.02
25560;BME280;13450;49.374;8.584;2023-06-05T08:24:22;100611.16;;;21.82;40.06
25560;BME280;13450;49.374;8.584;2023-06-05T08:26:48;100610.66;;;21.90;40.04
25560;BME280;13450;49.374;8.584;2023-06-05T08:29:13;100612.09;;;21.93;39.93
25560;BME280;13450;49.374;8.584;2023-06-05T08:31:39;100609.63;;;21.91;39.57
25560;BME280;13450;49.374;8.584;2023-06-05T08:34:05;100606.09;;;21.96;39.83
25560;BME280;13450;49.374;8.584;2023-06-05T08:36:31;100611.09;;;22.04;40.31
25560;BME280;13450;49.374;8.584;2023-06-05T08:39:00;100598.09;;;22.12;40.15
25560;BME280;13450;49.374;8.584;2023-06-05T08:41:26;100605.50;;;22.21;39.64
25560;BME280;13450;49.374;8.584;2023-06-05T08:43:53;100605.88;;;22.30;39.36
25560;BME280;13450;49.374;8.584;2023-06-05T08:46:21;100599.31;;;22.31;39.69
25560;BME280;13450;49.374;8.584;2023-06-05T08:48:48;100604.03;;;22.41;40.09
25560;BME280;13450;49.374;8.584;2023-06-05T08:51:20;100609.00;;;22.50;39.62
25560;BME280;13450;49.374;8.584;2023-06-05T08:53:59;100604.16;;;22.57;39.88
25560;BME280;13450;49.374;8.584;2023-06-05T08:56:28;100609.41;;;22.64;39.64
25560;BME280;13450;49.374;8.584;2023-06-05T08:58:54;100604.25;;;22.67;38.96
25560;BME280;13450;49.374;8.584;2023-06-05T09:01:21;100605.13;;;22.78;40.05
25560;BME280;13450;49.374;8.584;2023-06-05T09:03:49;100599.16;;;22.81;39.81
25560;BME280;13450;49.374;8.584;2023-06-05T09:06:15;100593.72;;;22.92;40.23
25560;BME280;13450;49.374;8.584;2023-06-05T09:08:48;100592.41;;;22.94;39.77
25560;BME280;13450;49.374;8.584;2023-06-05T09:11:39;100592.47;;;23.10;39.62
25560;BME280;13450;49.374;8.584;2023-06-05T09:14:05;100598.81;;;23.21;39.14
25560;BME280;13450;49.374;8.584;2023-06-05T09:19:03;100592.84;;;23.29;38.91
25560;BME280;13450;49.374;8.584;2023-06-05T09:21:29;100593.41;;;23.36;38.92
25560;BME280;13450;49.374;8.584;2023-06-05T09:29:32;100574.66;;;23.66;39.12
25560;BME280;13450;49.374;8.584;2023-06-05T09:32:17;100575.22;;;23.73;39.27
25560;BME280;13450;49.374;8.584;2023-06-05T09:34:44;100583.16;;;23.75;39.50
25560;BME280;13450;49.374;8.584;2023-06-05T09:37:12;100582.63;;;23.94;38.84
25560;BME280;13450;49.374;8.584;2023-06-05T09:39:41;100570.63;;;24.05;39.42
25560;BME280;13450;49.374;8.584;2023-06-05T09:42:11;100570.63;;;24.05;39.40
25560;BME280;13450;49.374;8.584;2023-06-05T09:44:36;100576.91;;;24.16;39.72
25560;BME280;13450;49.374;8.584;2023-06-05T09:47:06;100569.53;;;24.32;39.50
25560;BME280;13450;49.374;8.584;2023-06-05T09:52:08;100571.72;;;24.46;39.06
25560;BME280;13450;49.374;8.584;2023-06-05T09:54:36;100575.50;;;24.60;39.93
25560;BME280;13450;49.374;8.584;2023-06-05T09:57:06;100570.00;;;24.71;38.76
25560;BME280;13450;49.374;8.584;2023-06-05T09:59:52;100570.25;;;24.74;38.77
25560;BME280;13450;49.374;8.584;2023-06-05T10:02:21;100557.13;;;24.76;39.43
25560;BME280;13450;49.374;8.584;2023-06-05T10:05:08;100554.63;;;24.90;39.33
25560;BME280;13450;49.374;8.584;2023-06-05T10:07:37;100553.22;;;25.08;39.83
25560;BME280;13450;49.374;8.584;2023-06-05T10:10:06;100558.31;;;25.26;37.41
25560;BME280;13450;49.374;8.584;2023-06-05T10:12:34;100554.44;;;25.37;35.83
25560;BME280;13450;49.374;8.584;2023-06-05T10:15:00;100557.06;;;25.53;37.19
25560;BME280;13450;49.374;8.584;2023-06-05T10:17:27;100550.75;;;25.63;36.83
25560;BME280;13450;49.374;8.584;2023-06-05T10:19:53;100548.19;;;25.77;37.10
25560;BME280;13450;49.374;8.584;2023-06-05T10:22:18;100551.34;;;25.94;36.70
25560;BME280;13450;49.374;8.584;2023-06-05T10:24:49;100554.59;;;25.96;36.84
25560;BME280;13450;49.374;8.584;2023-06-05T10:32:29;100541.38;;;26.38;35.68
25560;BME280;13450;49.374;8.584;2023-06-05T10:40:30;100556.03;;;26.53;34.58
25560;BME280;13450;49.374;8.584;2023-06-05T10:45:50;100543.81;;;26.94;34.02
25560;BME280;13450;49.374;8.584;2023-06-05T10:48:16;100540.13;;;27.23;34.09
25560;BME280;13450;49.374;8.584;2023-06-05T10:50:43;100550.16;;;27.72;33.16
25560;BME280;13450;49.374;8.584;2023-06-05T10:53:41;100548.53;;;28.04;33.09
25560;BME280;13450;49.374;8.584;2023-06-05T10:56:06;100542.13;;;28.09;33.46
25560;BME280;13450;49.374;8.584;2023-06-05T10:58:31;100539.81;;;27.83;33.19
25560;BME280;13450;49.374;8.584;2023-06-05T11:01:17;100550.16;;;27.72;32.85
25560;BME280;13450;49.374;8.584;2023-06-05T11:03:59;100536.72;;;27.70;32.72
25560;BME280;13450;49.374;8.584;2023-06-05T11:06:26;100539.56;;;28.31;31.74
25560;BME280;13450;49.374;8.584;2023-06-05T11:09:12;100527.38;;;28.94;30.42
25560;BME280;13450;49.374;8.584;2023-06-05T11:11:57;100534.63;;;29.86;29.57
25560;BME280;13450;49.374;8.584;2023-06-05T11:14:47;100524.19;;;30.70;28.66
25560;BME280;13450;49.374;8.584;2023-06-05T11:17:41;100526.25;;;32.49;26.21
25560;BME280;13450;49.374;8.584;2023-06-05T11:20:08;100529.47;;;34.47;23.80
25560;BME280;13450;49.374;8.584;2023-06-05T11:27:51;100529.78;;;37.70;21.12
25560;BME280;13450;49.374;8.584;2023-06-05T11:30:19;100525.84;;;38.68;19.24
25560;BME280;13450;49.374;8.584;2023-06-05T11:32:45;100517.56;;;38.01;20.27
25560;BME280;13450;49.374;8.584;2023-06-05T11:35:13;100511.38;;;38.62;19.11
25560;BME280;13450;49.374;8.584;2023-06-05T11:37:39;100503.50;;;38.98;18.60
25560;BME280;13450;49.374;8.584;2023-06-05T11:40:06;100514.13;;;38.89;18.97
25560;BME280;13450;49.374;8.584;2023-06-05T11:42:44;100509.31;;;38.86;18.90
25560;BME280;13450;49.374;8.584;2023-06-05T11:45:10;100502.94;;;39.50;18.58
25560;BME280;13450;49.374;8.584;2023-06-05T11:47:35;100504.69;;;40.08;17.33
25560;BME280;13450;49.374;8.584;2023-06-05T11:50:11;100514.03;;;40.26;16.89
25560;BME280;13450;49.374;8.584;2023-06-05T11:52:37;100499.38;;;40.48;16.21
25560;BME280;13450;49.374;8.584;2023-06-05T11:55:16;100500.50;;;39.91;16.70
25560;BME280;13450;49.374;8.584;2023-06-05T11:57:48;100497.56;;;39.72;16.33
25560;BME280;13450;49.374;8.584;2023-06-05T12:00:15;100498.41;;;40.25;17.68
25560;BME280;13450;49.374;8.584;2023-06-05T12:02:42;100494.38;;;39.74;17.20
25560;BME280;13450;49.374;8.584;2023-06-05T12:05:10;100492.47;;;40.38;15.85
25560;BME280;13450;49.374;8.584;2023-06-05T12:07:38;100499.38;;;41.29;15.27
25560;BME280;13450;49.374;8.584;2023-06-05T12:10:06;100489.06;;;42.10;15.21
25560;BME280;13450;49.374;8.584;2023-06-05T12:12:49;100502.28;;;42.39;14.35
25560;BME280;13450;49.374;8.584;2023-06-05T12:15:19;100498.69;;;42.42;14.11
25560;BME280;13450;49.374;8.584;2023-06-05T12:17:56;100491.88;;;41.95;13.97
25560;BME280;13450;49.374;8.584;2023-06-05T12:20:25;100486.66;;;42.16;13.85
25560;BME280;13450;49.374;8.584;2023-06-05T12:23:02;100483.22;;;43.01;12.62
25560;BME280;13450;49.374;8.584;2023-06-05T12:25:27;100472.94;;;42.65;13.29
25560;BME280;13450;49.374;8.584;2023-06-05T12:27:54;100469.88;;;43.80;12.62
25560;BME280;13450;49.374;8.584;2023-06-05T12:30:20;100466.66;;;45.28;12.26
25560;BME280;13450;49.374;8.584;2023-06-05T12:32:46;100469.91;;;44.61;12.54
25560;BME280;13450;49.374;8.584;2023-06-05T12:35:22;100475.97;;;44.21;12.11
25560;BME280;13450;49.374;8.584;2023-06-05T12:37:49;100465.00;;;44.68;11.75
25560;BME280;13450;49.374;8.584;2023-06-05T12:40:18;100457.53;;;42.95;12.41
25560;BME280;13450;49.374;8.584;2023-06-05T12:42:47;100450.13;;;43.27;12.21
25560;BME280;13450;49.374;8.584;2023-06-05T12:45:13;100453.75;;;44.65;13.06
25560;BME280;13450;49.374;8.584;2023-06-05T12:47:39;100455.28;;;43.96;11.89
25560;BME280;13450;49.374;8.584;2023-06-05T12:50:10;100446.84;;;41.12;13.08
25560;BME280;13450;49.374;8.584;2023-06-05T12:52:39;100451.03;;;39.57;14.00
25560;BME280;13450;49.374;8.584;2023-06-05T12:55:05;100446.22;;;37.77;15.54
25560;BME280;13450;49.374;8.584;2023-06-05T12:57:32;100447.47;;;36.61;16.70
25560;BME280;13450;49.374;8.584;2023-06-05T12:59:59;100440.19;;;35.27;17.96
25560;BME280;13450;49.374;8.584;2023-06-05T13:02:26;100432.97;;;34.31;19.54
25560;BME280;13450;49.374;8.584;2023-06-05T13:04:53;100432.50;;;33.46;19.34
25560;BME280;13450;49.374;8.584;2023-06-05T13:07:18;100440.66;;;32.66;19.31
25560;BME280;13450;49.374;8.584;2023-06-05T13:09:44;100437.66;;;33.35;19.40
25560;BME280;13450;49.374;8.584;2023-06-05T13:12:11;100430.31;;;35.91;17.32
25560;BME280;13450;49.374;8.584;2023-06-05T13:14:37;100437.13;;;36.42;16.37
25560;BME280;13450;49.374;8.584;2023-06-05T13:17:02;100438.47;;;37.47;15.09
25560;BME280;13450;49.374;8.584;2023-06-05T13:19:28;100432.00;;;39.32;14.67
25560;BME280;13450;49.374;8.584;2023-06-05T13:21:56;100426.22;;;40.67;13.78
25560;BME280;13450;49.374;8.584;2023-06-05T13:24:22;100422.47;;;41.96;12.77